Terminal Aerodrome Forecast
Issued by NWS

Home | Current Version | Previous Version | Text Only | Print | Product List | Glossary On
Versions: 1 2 3 4 5 6 7 8 9 10 11 12 13 14 15 16 17 18 19 20 21 22 23 24 25
000
FTUS46 KLOX 010500
TAFPRB
TAF
KPRB 010527Z 0106/0206 VRB03KT P6SM SCT200
     FM011200 00000KT 1/4SM FG VV001
     FM011800 VRB03KT P6SM SCT200
     FM012100 10008KT P6SM SCT200
     FM020500 VRB03KT P6SM SCT200=

USA.gov is the U.S. government's official web portal to all federal, state and local government web resources and services.